Alys Beach, Florida
Current Conditions -  °F | °C
As of 9:53 PM on Saturday 25 Oct 2014 (Local Time) from KECP Reporting Station
Clear Clear  
Wind Chill: 56°   Ceiling: Unl
Heat Index: 56°   Visibility: 10mi
Dew Point: 51°   Wind: 0mph
Humidity: 84%   Direction: NA
Pressure: 30.04"   Gusts: NA
Location:  30.2534°N, 85.9486°W
Report Text: KECP 260253Z AUTO 00000KT 10SM CLR 13/11 A3004 RMK AO2 SLP185 T01330106 51009 $
Loading
Personal Weather Stations






























Interactive Weather Map New forecast layout! Learn more

10-Day Weather Forecast

Advertisements
Track Severe Weather on mobile